Huvudsida
METAR-TAF:

METAR-TAF

Flygplatser :

Guilin Liangjiang International Airport

Guilin, Kina

latitud: 25-20N, longitud: 110-18E, höjd: 166 m

Aktuellt väderrapport

Denna rapport gjordes för 52 minuter sedan, klockan 07:00 UTC
Vind 8 kt från ost/nordost, varierande mellan nord/nordost och ost
Temperatur 22°C
Fuktighet 65%
Tryck 1015 hPa
Sikt 10 km eller mer
Spridda moln på en höjd av 3600 ft
Mulet på en höjd av 6600 ft

METAR: ZGKL 180700Z 06004MPS 020V090 9999 SCT036 OVC066 22/15 Q1015 NOSIG

Tid: 15:52 (07:52 UTC)

Väderprognos

Denna rapport gjordes för 4 timmar och 39 minuter sedan, klockan 03:13 UTC
Prognos gäller från 18 kl. 06 UTC till 19 kl. 06 UTC
Vind 8 kt från nordost
Sikt: 8000 m
Spridda moln på en höjd av 3000 ft
Mulet på en höjd av 5000 ft

TAF: ZGKL 180313Z 1806/1906 05004MPS 8000 SCT030 OVC050 TX24/1807Z TN14/1822Z

Aktuella väderrapporter och prognoser från 4000 flygplatser (METAR- och TAF-rapporter).

De tillgängliga stationerna syns som gula och röda prickar på kartan.

För musen över prickarna för att se namnen på stationerna.

Klicka sedan för att få väderrapporter och prognoser.

För att ändra kartan: Klicka på de gröna knapparna med ett svart kors på för att zooma in; den gröna knappen med ett streck på för att zooma ut; eller på de gröna pilarna för angränsande kartor.


METAR-TAF: